Aviation Digital Data Service (ADDS)

Output produced by METARs form (1047 UTC 18 June 2019)
found at http://www.aviationweather.gov/metar/data/
 
METAR text: EKKA 181020Z AUTO 18006KT 150V250 9999 FEW220/// 25/15 Q1014 NOSIG
Conditions at: EKKA (KARUP (DAN-AFB) , DK) observed 1020 UTC 18 June 2019
Temperature: 25.0°C (77°F)
Dewpoint: 15.0°C (59°F) [RH = 54%]
Pressure (altimeter): 29.94 inches Hg (1014.0 mb)
Winds: from the S (180 degrees) at 7 MPH (6 knots; 3.1 m/s)
Visibility: 6 or more miles (10+ km)
Ceiling: at least 12,000 feet AGL
Clouds: few clouds at 22000 feet AGL
Weather: no significant weather observed at this time

METAR text: EKKA 180950Z AUTO 19006KT 120V260 9999 SCT180/// 25/16 Q1014 NOSIG
Conditions at: EKKA (KARUP (DAN-AFB) , DK) observed 0950 UTC 18 June 2019
Temperature: 25.0°C (77°F)
Dewpoint: 16.0°C (61°F) [RH = 57%]
Pressure (altimeter): 29.94 inches Hg (1014.0 mb)
Winds: from the S (190 degrees) at 7 MPH (6 knots; 3.1 m/s)
Visibility: 6 or more miles (10+ km)
Ceiling: at least 12,000 feet AGL
Clouds: scattered clouds at 18000 feet AGL
Weather: no significant weather observed at this time

METAR text: EKKA 180920Z AUTO 18005KT 130V240 9999 FEW064/// 24/15 Q1015 NOSIG
Conditions at: EKKA (KARUP (DAN-AFB) , DK) observed 0920 UTC 18 June 2019
Temperature: 24.0°C (75°F)
Dewpoint: 15.0°C (59°F) [RH = 57%]
Pressure (altimeter): 29.97 inches Hg (1015.0 mb)
Winds: from the S (180 degrees) at 6 MPH (5 knots; 2.6 m/s)
Visibility: 6 or more miles (10+ km)
Ceiling: at least 12,000 feet AGL
Clouds: few clouds at 6400 feet AGL
Weather: no significant weather observed at this time

METAR text: EKKA 180850Z AUTO 19006KT 150V240 9999 FEW062/// 23/15 Q1015 NOSIG
Conditions at: EKKA (KARUP (DAN-AFB) , DK) observed 0850 UTC 18 June 2019
Temperature: 23.0°C (73°F)
Dewpoint: 15.0°C (59°F) [RH = 61%]
Pressure (altimeter): 29.97 inches Hg (1015.0 mb)
Winds: from the S (190 degrees) at 7 MPH (6 knots; 3.1 m/s)
Visibility: 6 or more miles (10+ km)
Ceiling: at least 12,000 feet AGL
Clouds: few clouds at 6200 feet AGL
Weather: no significant weather observed at this time

METAR text: EKKA 180820Z AUTO 20007KT 170V240 9999 FEW065/// 22/16 Q1015 NOSIG
Conditions at: EKKA (KARUP (DAN-AFB) , DK) observed 0820 UTC 18 June 2019
Temperature: 22.0°C (72°F)
Dewpoint: 16.0°C (61°F) [RH = 69%]
Pressure (altimeter): 29.97 inches Hg (1015.0 mb)
Winds: from the SSW (200 degrees) at 8 MPH (7 knots; 3.6 m/s)
Visibility: 6 or more miles (10+ km)
Ceiling: at least 12,000 feet AGL
Clouds: few clouds at 6500 feet AGL
Weather: no significant weather observed at this time

METAR text: EKKA 180750Z AUTO 20009KT 9999 SCT160/// SCT180/// 22/16 Q1015 NOSIG
Conditions at: EKKA (KARUP (DAN-AFB) , DK) observed 0750 UTC 18 June 2019
Temperature: 22.0°C (72°F)
Dewpoint: 16.0°C (61°F) [RH = 69%]
Pressure (altimeter): 29.97 inches Hg (1015.0 mb)
Winds: from the SSW (200 degrees) at 10 MPH (9 knots; 4.6 m/s)
Visibility: 6 or more miles (10+ km)
Ceiling: at least 12,000 feet AGL
Clouds: scattered clouds at 16000 feet AGL
scattered clouds at 18000 feet AGL
Weather: no significant weather observed at this time

METAR text: EKKA 180720Z 19009KT 160V220 CAVOK 21/15 Q1015 NOSIG RMK FEW060 BKN180
Conditions at: EKKA (KARUP (DAN-AFB) , DK) observed 0720 UTC 18 June 2019
Temperature: 21.0°C (70°F)
Dewpoint: 15.0°C (59°F) [RH = 69%]
Pressure (altimeter): 29.97 inches Hg (1015.0 mb)
Winds: from the S (190 degrees) at 10 MPH (9 knots; 4.6 m/s)
Visibility: 6 or more miles (10+ km)
Ceiling: ceiling and visibility are OK
Clouds: unknown
Weather: no significant weather observed at this time

METAR text: EKKA 180650Z 19007KT 160V220 9999 FEW050TCU BKN180 20/15 Q1015 NOSIG
Conditions at: EKKA (KARUP (DAN-AFB) , DK) observed 0650 UTC 18 June 2019
Temperature: 20.0°C (68°F)
Dewpoint: 15.0°C (59°F) [RH = 73%]
Pressure (altimeter): 29.97 inches Hg (1015.0 mb)
Winds: from the S (190 degrees) at 8 MPH (7 knots; 3.6 m/s)
Visibility: 6 or more miles (10+ km)
Ceiling: 18000 feet AGL
Clouds: few clouds at 5000 feet AGL
broken clouds at 18000 feet AGL
Weather: no significant weather observed at this time

METAR text: EKKA 180620Z 18007KT 9999 FEW050TCU SCT150 19/15 Q1015 BECMG FEW040
Conditions at: EKKA (KARUP (DAN-AFB) , DK) observed 0620 UTC 18 June 2019
Temperature: 19.0°C (66°F)
Dewpoint: 15.0°C (59°F) [RH = 78%]
Pressure (altimeter): 29.97 inches Hg (1015.0 mb)
Winds: from the S (180 degrees) at 8 MPH (7 knots; 3.6 m/s)
Visibility: 6 or more miles (10+ km)
Ceiling: at least 12,000 feet AGL
Clouds: few clouds at 5000 feet AGL
scattered clouds at 15000 feet AGL
Weather: no significant weather observed at this time

METAR text: EKKA 180616Z 19007KT 160V220 9999 FEW050TCU SCT150 19/15 Q1015 BECMG FEW040
Conditions at: EKKA (KARUP (DAN-AFB) , DK) observed 0616 UTC 18 June 2019
Temperature: 19.0°C (66°F)
Dewpoint: 15.0°C (59°F) [RH = 78%]
Pressure (altimeter): 29.97 inches Hg (1015.0 mb)
Winds: from the S (190 degrees) at 8 MPH (7 knots; 3.6 m/s)
Visibility: 6 or more miles (10+ km)
Ceiling: at least 12,000 feet AGL
Clouds: few clouds at 5000 feet AGL
scattered clouds at 15000 feet AGL
Weather: no significant weather observed at this time

METAR text: EKKA 180550Z AUTO 20005KT 9999 FEW053/// FEW064/// BKN160/// 19/15 Q1015 TEMPO -SHRA FEW040CB
Conditions at: EKKA (KARUP (DAN-AFB) , DK) observed 0550 UTC 18 June 2019
Temperature: 19.0°C (66°F)
Dewpoint: 15.0°C (59°F) [RH = 78%]
Pressure (altimeter): 29.97 inches Hg (1015.0 mb)
Winds: from the SSW (200 degrees) at 6 MPH (5 knots; 2.6 m/s)
Visibility: 6 or more miles (10+ km)
Ceiling: 16000 feet AGL
Clouds: few clouds at 5300 feet AGL
few clouds at 6400 feet AGL
broken clouds at 16000 feet AGL
Weather: no significant weather observed at this time

METAR text: EKKA 180520Z AUTO 19005KT 160V220 9999 FEW068/// BKN160/// 19/15 Q1015 TEMPO -SHRA FEW040CB
Conditions at: EKKA (KARUP (DAN-AFB) , DK) observed 0520 UTC 18 June 2019
Temperature: 19.0°C (66°F)
Dewpoint: 15.0°C (59°F) [RH = 78%]
Pressure (altimeter): 29.97 inches Hg (1015.0 mb)
Winds: from the S (190 degrees) at 6 MPH (5 knots; 2.6 m/s)
Visibility: 6 or more miles (10+ km)
Ceiling: 16000 feet AGL
Clouds: few clouds at 6800 feet AGL
broken clouds at 16000 feet AGL
Weather: no significant weather observed at this time

METAR text: EKKA 180450Z AUTO 19006KT 160V220 9999 FEW068/// BKN160/// BKN180/// 18/14 Q1015 TEMPO -SHRA FEW040CB
Conditions at: EKKA (KARUP (DAN-AFB) , DK) observed 0450 UTC 18 June 2019
Temperature: 18.0°C (64°F)
Dewpoint: 14.0°C (57°F) [RH = 77%]
Pressure (altimeter): 29.97 inches Hg (1015.0 mb)
Winds: from the S (190 degrees) at 7 MPH (6 knots; 3.1 m/s)
Visibility: 6 or more miles (10+ km)
Ceiling: 16000 feet AGL
Clouds: few clouds at 6800 feet AGL
broken clouds at 16000 feet AGL
broken clouds at 18000 feet AGL
Weather: no significant weather observed at this time

METAR text: EKKA 180420Z AUTO 17006KT 9999 FEW058/// SCT068/// SCT170/// 17/14 Q1016
Conditions at: EKKA (KARUP (DAN-AFB) , DK) observed 0420 UTC 18 June 2019
Temperature: 17.0°C (63°F)
Dewpoint: 14.0°C (57°F) [RH = 82%]
Pressure (altimeter): 30.00 inches Hg (1016.0 mb)
Winds: from the S (170 degrees) at 7 MPH (6 knots; 3.1 m/s)
Visibility: 6 or more miles (10+ km)
Ceiling: at least 12,000 feet AGL
Clouds: few clouds at 5800 feet AGL
scattered clouds at 6800 feet AGL
scattered clouds at 17000 feet AGL
Weather: no significant weather observed at this time

METAR text: EKKA 180350Z AUTO 17008KT 9999 SCT170/// BKN200/// 17/14 Q1015
Conditions at: EKKA (KARUP (DAN-AFB) , DK) observed 0350 UTC 18 June 2019
Temperature: 17.0°C (63°F)
Dewpoint: 14.0°C (57°F) [RH = 82%]
Pressure (altimeter): 29.97 inches Hg (1015.0 mb)
Winds: from the S (170 degrees) at 9 MPH (8 knots; 4.1 m/s)
Visibility: 6 or more miles (10+ km)
Ceiling: 20000 feet AGL
Clouds: scattered clouds at 17000 feet AGL
broken clouds at 20000 feet AGL
Weather: no significant weather observed at this time

METAR text: EKKA 180320Z AUTO 16010KT 9999 BKN200/// 17/13 Q1015
Conditions at: EKKA (KARUP (DAN-AFB) , DK) observed 0320 UTC 18 June 2019
Temperature: 17.0°C (63°F)
Dewpoint: 13.0°C (55°F) [RH = 77%]
Pressure (altimeter): 29.97 inches Hg (1015.0 mb)
Winds: from the SSE (160 degrees) at 12 MPH (10 knots; 5.1 m/s)
Visibility: 6 or more miles (10+ km)
Ceiling: 20000 feet AGL
Clouds: broken clouds at 20000 feet AGL
Weather: no significant weather observed at this time

METAR text: EKKA 180250Z AUTO 16011KT 9999 BKN190/// 17/13 Q1015
Conditions at: EKKA (KARUP (DAN-AFB) , DK) observed 0250 UTC 18 June 2019
Temperature: 17.0°C (63°F)
Dewpoint: 13.0°C (55°F) [RH = 77%]
Pressure (altimeter): 29.97 inches Hg (1015.0 mb)
Winds: from the SSE (160 degrees) at 13 MPH (11 knots; 5.7 m/s)
Visibility: 6 or more miles (10+ km)
Ceiling: 19000 feet AGL
Clouds: broken clouds at 19000 feet AGL
Weather: no significant weather observed at this time

METAR text: EKKA 180220Z AUTO 15010KT 9999 FEW057/// BKN190/// 17/13 Q1016
Conditions at: EKKA (KARUP (DAN-AFB) , DK) observed 0220 UTC 18 June 2019
Temperature: 17.0°C (63°F)
Dewpoint: 13.0°C (55°F) [RH = 77%]
Pressure (altimeter): 30.00 inches Hg (1016.0 mb)
Winds: from the SSE (150 degrees) at 12 MPH (10 knots; 5.1 m/s)
Visibility: 6 or more miles (10+ km)
Ceiling: 19000 feet AGL
Clouds: few clouds at 5700 feet AGL
broken clouds at 19000 feet AGL
Weather: no significant weather observed at this time

METAR text: EKKA 180150Z AUTO 15008KT 9999 -RA FEW056/// BKN080/// 16/13 Q1016
Conditions at: EKKA (KARUP (DAN-AFB) , DK) observed 0150 UTC 18 June 2019
Temperature: 16.0°C (61°F)
Dewpoint: 13.0°C (55°F) [RH = 82%]
Pressure (altimeter): 30.00 inches Hg (1016.0 mb)
Winds: from the SSE (150 degrees) at 9 MPH (8 knots; 4.1 m/s)
Visibility: 6 or more miles (10+ km)
Ceiling: 8000 feet AGL
Clouds: few clouds at 5600 feet AGL
broken clouds at 8000 feet AGL
Weather: -RA  (light rain)

METAR text: EKKA 180120Z AUTO 14007KT 9999 SCT055/// BKN095/// 16/13 Q1016
Conditions at: EKKA (KARUP (DAN-AFB) , DK) observed 0120 UTC 18 June 2019
Temperature: 16.0°C (61°F)
Dewpoint: 13.0°C (55°F) [RH = 82%]
Pressure (altimeter): 30.00 inches Hg (1016.0 mb)
Winds: from the SE (140 degrees) at 8 MPH (7 knots; 3.6 m/s)
Visibility: 6 or more miles (10+ km)
Ceiling: 9500 feet AGL
Clouds: scattered clouds at 5500 feet AGL
broken clouds at 9500 feet AGL
Weather: no significant weather observed at this time

METAR text: EKKA 180050Z AUTO 14006KT 9999 FEW058/// SCT084/// 15/13 Q1017
Conditions at: EKKA (KARUP (DAN-AFB) , DK) observed 0050 UTC 18 June 2019
Temperature: 15.0°C (59°F)
Dewpoint: 13.0°C (55°F) [RH = 88%]
Pressure (altimeter): 30.03 inches Hg (1017.0 mb)
Winds: from the SE (140 degrees) at 7 MPH (6 knots; 3.1 m/s)
Visibility: 6 or more miles (10+ km)
Ceiling: at least 12,000 feet AGL
Clouds: few clouds at 5800 feet AGL
scattered clouds at 8400 feet AGL
Weather: no significant weather observed at this time

METAR text: EKKA 180020Z AUTO 14005KT 9999 SCT058/// 15/13 Q1017
Conditions at: EKKA (KARUP (DAN-AFB) , DK) observed 0020 UTC 18 June 2019
Temperature: 15.0°C (59°F)
Dewpoint: 13.0°C (55°F) [RH = 88%]
Pressure (altimeter): 30.03 inches Hg (1017.0 mb)
Winds: from the SE (140 degrees) at 6 MPH (5 knots; 2.6 m/s)
Visibility: 6 or more miles (10+ km)
Ceiling: at least 12,000 feet AGL
Clouds: scattered clouds at 5800 feet AGL
Weather: no significant weather observed at this time

METAR text: EKKA 172350Z AUTO 14005KT 9999 FEW061/// 15/13 Q1017
Conditions at: EKKA (KARUP (DAN-AFB) , DK) observed 2350 UTC 17 June 2019
Temperature: 15.0°C (59°F)
Dewpoint: 13.0°C (55°F) [RH = 88%]
Pressure (altimeter): 30.03 inches Hg (1017.0 mb)
Winds: from the SE (140 degrees) at 6 MPH (5 knots; 2.6 m/s)
Visibility: 6 or more miles (10+ km)
Ceiling: at least 12,000 feet AGL
Clouds: few clouds at 6100 feet AGL
Weather: no significant weather observed at this time

METAR text: EKKA 172320Z AUTO 14006KT 9999 FEW053/// 15/12 Q1018
Conditions at: EKKA (KARUP (DAN-AFB) , DK) observed 2320 UTC 17 June 2019
Temperature: 15.0°C (59°F)
Dewpoint: 12.0°C (54°F) [RH = 82%]
Pressure (altimeter): 30.06 inches Hg (1018.0 mb)
Winds: from the SE (140 degrees) at 7 MPH (6 knots; 3.1 m/s)
Visibility: 6 or more miles (10+ km)
Ceiling: at least 12,000 feet AGL
Clouds: few clouds at 5300 feet AGL
Weather: no significant weather observed at this time

METAR text: EKKA 172250Z AUTO 15005KT 9999 NCD 15/12 Q1018
Conditions at: EKKA (KARUP (DAN-AFB) , DK) observed 2250 UTC 17 June 2019
Temperature: 15.0°C (59°F)
Dewpoint: 12.0°C (54°F) [RH = 82%]
Pressure (altimeter): 30.06 inches Hg (1018.0 mb)
Winds: from the SSE (150 degrees) at 6 MPH (5 knots; 2.6 m/s)
Visibility: 6 or more miles (10+ km)
Ceiling: at least 12,000 feet AGL
Clouds: sky clear below 12,000 feet AGL
Weather: no significant weather observed at this time

METAR text: EKKA 172220Z AUTO 15005KT 9999 SCT066/// 16/12 Q1018
Conditions at: EKKA (KARUP (DAN-AFB) , DK) observed 2220 UTC 17 June 2019
Temperature: 16.0°C (61°F)
Dewpoint: 12.0°C (54°F) [RH = 77%]
Pressure (altimeter): 30.06 inches Hg (1018.0 mb)
Winds: from the SSE (150 degrees) at 6 MPH (5 knots; 2.6 m/s)
Visibility: 6 or more miles (10+ km)
Ceiling: at least 12,000 feet AGL
Clouds: scattered clouds at 6600 feet AGL
Weather: no significant weather observed at this time

METAR text: EKKA 172150Z AUTO 15003KT 9999 SCT061/// BKN240/// 16/13 Q1018
Conditions at: EKKA (KARUP (DAN-AFB) , DK) observed 2150 UTC 17 June 2019
Temperature: 16.0°C (61°F)
Dewpoint: 13.0°C (55°F) [RH = 82%]
Pressure (altimeter): 30.06 inches Hg (1018.0 mb)
Winds: from the SSE (150 degrees) at 3 MPH (3 knots; 1.5 m/s)
Visibility: 6 or more miles (10+ km)
Ceiling: 24000 feet AGL
Clouds: scattered clouds at 6100 feet AGL
broken clouds at 24000 feet AGL
Weather: no significant weather observed at this time

METAR text: EKKA 172120Z AUTO 14004KT 9999 SCT065/// BKN240/// 16/13 Q1018
Conditions at: EKKA (KARUP (DAN-AFB) , DK) observed 2120 UTC 17 June 2019
Temperature: 16.0°C (61°F)
Dewpoint: 13.0°C (55°F) [RH = 82%]
Pressure (altimeter): 30.06 inches Hg (1018.0 mb)
Winds: from the SE (140 degrees) at 5 MPH (4 knots; 2.1 m/s)
Visibility: 6 or more miles (10+ km)
Ceiling: 24000 feet AGL
Clouds: scattered clouds at 6500 feet AGL
broken clouds at 24000 feet AGL
Weather: no significant weather observed at this time

METAR text: EKKA 172050Z AUTO 14003KT 9999 BKN240/// 17/12 Q1019
Conditions at: EKKA (KARUP (DAN-AFB) , DK) observed 2050 UTC 17 June 2019
Temperature: 17.0°C (63°F)
Dewpoint: 12.0°C (54°F) [RH = 72%]
Pressure (altimeter): 30.09 inches Hg (1019.0 mb)
Winds: from the SE (140 degrees) at 3 MPH (3 knots; 1.5 m/s)
Visibility: 6 or more miles (10+ km)
Ceiling: 24000 feet AGL
Clouds: broken clouds at 24000 feet AGL
Weather: no significant weather observed at this time

METAR text: EKKA 172020Z AUTO 14003KT 9999 NCD 18/13 Q1019
Conditions at: EKKA (KARUP (DAN-AFB) , DK) observed 2020 UTC 17 June 2019
Temperature: 18.0°C (64°F)
Dewpoint: 13.0°C (55°F) [RH = 73%]
Pressure (altimeter): 30.09 inches Hg (1019.0 mb)
Winds: from the SE (140 degrees) at 3 MPH (3 knots; 1.5 m/s)
Visibility: 6 or more miles (10+ km)
Ceiling: at least 12,000 feet AGL
Clouds: sky clear below 12,000 feet AGL
Weather: no significant weather observed at this time

METAR text: EKKA 171950Z AUTO 17003KT 9999 NCD 18/13 Q1019
Conditions at: EKKA (KARUP (DAN-AFB) , DK) observed 1950 UTC 17 June 2019
Temperature: 18.0°C (64°F)
Dewpoint: 13.0°C (55°F) [RH = 73%]
Pressure (altimeter): 30.09 inches Hg (1019.0 mb)
Winds: from the S (170 degrees) at 3 MPH (3 knots; 1.5 m/s)
Visibility: 6 or more miles (10+ km)
Ceiling: at least 12,000 feet AGL
Clouds: sky clear below 12,000 feet AGL
Weather: no significant weather observed at this time

METAR text: EKKA 171920Z AUTO 19003KT 9999 NCD 19/12 Q1019
Conditions at: EKKA (KARUP (DAN-AFB) , DK) observed 1920 UTC 17 June 2019
Temperature: 19.0°C (66°F)
Dewpoint: 12.0°C (54°F) [RH = 64%]
Pressure (altimeter): 30.09 inches Hg (1019.0 mb)
Winds: from the S (190 degrees) at 3 MPH (3 knots; 1.5 m/s)
Visibility: 6 or more miles (10+ km)
Ceiling: at least 12,000 feet AGL
Clouds: sky clear below 12,000 feet AGL
Weather: no significant weather observed at this time

METAR text: EKKA 171850Z AUTO 20004KT 9999 FEW051/// 20/13 Q1019
Conditions at: EKKA (KARUP (DAN-AFB) , DK) observed 1850 UTC 17 June 2019
Temperature: 20.0°C (68°F)
Dewpoint: 13.0°C (55°F) [RH = 64%]
Pressure (altimeter): 30.09 inches Hg (1019.0 mb)
Winds: from the SSW (200 degrees) at 5 MPH (4 knots; 2.1 m/s)
Visibility: 6 or more miles (10+ km)
Ceiling: at least 12,000 feet AGL
Clouds: few clouds at 5100 feet AGL
Weather: no significant weather observed at this time

METAR text: EKKA 171820Z AUTO 21005KT 9999 SCT053/// 20/13 Q1019
Conditions at: EKKA (KARUP (DAN-AFB) , DK) observed 1820 UTC 17 June 2019
Temperature: 20.0°C (68°F)
Dewpoint: 13.0°C (55°F) [RH = 64%]
Pressure (altimeter): 30.09 inches Hg (1019.0 mb)
Winds: from the SSW (210 degrees) at 6 MPH (5 knots; 2.6 m/s)
Visibility: 6 or more miles (10+ km)
Ceiling: at least 12,000 feet AGL
Clouds: scattered clouds at 5300 feet AGL
Weather: no significant weather observed at this time

METAR text: EKKA 171750Z AUTO 20007KT 170V240 9999 BKN039/// 21/13 Q1019
Conditions at: EKKA (KARUP (DAN-AFB) , DK) observed 1750 UTC 17 June 2019
Temperature: 21.0°C (70°F)
Dewpoint: 13.0°C (55°F) [RH = 60%]
Pressure (altimeter): 30.09 inches Hg (1019.0 mb)
Winds: from the SSW (200 degrees) at 8 MPH (7 knots; 3.6 m/s)
Visibility: 6 or more miles (10+ km)
Ceiling: 3900 feet AGL
Clouds: broken clouds at 3900 feet AGL
Weather: no significant weather observed at this time

METAR text: EKKA 171720Z AUTO 22010KT 9999 BKN051/// 22/12 Q1019
Conditions at: EKKA (KARUP (DAN-AFB) , DK) observed 1720 UTC 17 June 2019
Temperature: 22.0°C (72°F)
Dewpoint: 12.0°C (54°F) [RH = 53%]
Pressure (altimeter): 30.09 inches Hg (1019.0 mb)
Winds: from the SW (220 degrees) at 12 MPH (10 knots; 5.1 m/s)
Visibility: 6 or more miles (10+ km)
Ceiling: 5100 feet AGL
Clouds: broken clouds at 5100 feet AGL
Weather: no significant weather observed at this time

METAR text: EKKA 171650Z AUTO 22011KT 9999 BKN053/// 22/12 Q1019
Conditions at: EKKA (KARUP (DAN-AFB) , DK) observed 1650 UTC 17 June 2019
Temperature: 22.0°C (72°F)
Dewpoint: 12.0°C (54°F) [RH = 53%]
Pressure (altimeter): 30.09 inches Hg (1019.0 mb)
Winds: from the SW (220 degrees) at 13 MPH (11 knots; 5.7 m/s)
Visibility: 6 or more miles (10+ km)
Ceiling: 5300 feet AGL
Clouds: broken clouds at 5300 feet AGL
Weather: no significant weather observed at this time

METAR text: EKKA 171620Z AUTO 23012KT 9999 BKN053/// 22/12 Q1019
Conditions at: EKKA (KARUP (DAN-AFB) , DK) observed 1620 UTC 17 June 2019
Temperature: 22.0°C (72°F)
Dewpoint: 12.0°C (54°F) [RH = 53%]
Pressure (altimeter): 30.09 inches Hg (1019.0 mb)
Winds: from the SW (230 degrees) at 14 MPH (12 knots; 6.2 m/s)
Visibility: 6 or more miles (10+ km)
Ceiling: 5300 feet AGL
Clouds: broken clouds at 5300 feet AGL
Weather: no significant weather observed at this time

METAR text: EKKA 171550Z AUTO 22010KT 9999 BKN044/// 22/12 Q1019
Conditions at: EKKA (KARUP (DAN-AFB) , DK) observed 1550 UTC 17 June 2019
Temperature: 22.0°C (72°F)
Dewpoint: 12.0°C (54°F) [RH = 53%]
Pressure (altimeter): 30.09 inches Hg (1019.0 mb)
Winds: from the SW (220 degrees) at 12 MPH (10 knots; 5.1 m/s)
Visibility: 6 or more miles (10+ km)
Ceiling: 4400 feet AGL
Clouds: broken clouds at 4400 feet AGL
Weather: no significant weather observed at this time

METAR text: EKKA 171520Z AUTO 23012KT 9999 BKN045/// 21/11 Q1020
Conditions at: EKKA (KARUP (DAN-AFB) , DK) observed 1520 UTC 17 June 2019
Temperature: 21.0°C (70°F)
Dewpoint: 11.0°C (52°F) [RH = 53%]
Pressure (altimeter): 30.12 inches Hg (1020.0 mb)
Winds: from the SW (230 degrees) at 14 MPH (12 knots; 6.2 m/s)
Visibility: 6 or more miles (10+ km)
Ceiling: 4500 feet AGL
Clouds: broken clouds at 4500 feet AGL
Weather: no significant weather observed at this time

METAR text: EKKA 171450Z AUTO 22013KT 180V240 9999 SCT044/// 21/11 Q1019
Conditions at: EKKA (KARUP (DAN-AFB) , DK) observed 1450 UTC 17 June 2019
Temperature: 21.0°C (70°F)
Dewpoint: 11.0°C (52°F) [RH = 53%]
Pressure (altimeter): 30.09 inches Hg (1019.0 mb)
Winds: from the SW (220 degrees) at 15 MPH (13 knots; 6.7 m/s)
Visibility: 6 or more miles (10+ km)
Ceiling: at least 12,000 feet AGL
Clouds: scattered clouds at 4400 feet AGL
Weather: no significant weather observed at this time

METAR text: EKKA 171420Z AUTO 23013KT 9999 SCT040/// 22/11 Q1020
Conditions at: EKKA (KARUP (DAN-AFB) , DK) observed 1420 UTC 17 June 2019
Temperature: 22.0°C (72°F)
Dewpoint: 11.0°C (52°F) [RH = 50%]
Pressure (altimeter): 30.12 inches Hg (1020.0 mb)
Winds: from the SW (230 degrees) at 15 MPH (13 knots; 6.7 m/s)
Visibility: 6 or more miles (10+ km)
Ceiling: at least 12,000 feet AGL
Clouds: scattered clouds at 4000 feet AGL
Weather: no significant weather observed at this time

METAR text: EKKA 171350Z AUTO 22012KT 190V260 9999 BKN039/// 22/12 Q1020
Conditions at: EKKA (KARUP (DAN-AFB) , DK) observed 1350 UTC 17 June 2019
Temperature: 22.0°C (72°F)
Dewpoint: 12.0°C (54°F) [RH = 53%]
Pressure (altimeter): 30.12 inches Hg (1020.0 mb)
Winds: from the SW (220 degrees) at 14 MPH (12 knots; 6.2 m/s)
Visibility: 6 or more miles (10+ km)
Ceiling: 3900 feet AGL
Clouds: broken clouds at 3900 feet AGL
Weather: no significant weather observed at this time

METAR text: EKKA 171320Z AUTO 24013KT 9999 BKN038/// 21/12 Q1020 NOSIG
Conditions at: EKKA (KARUP (DAN-AFB) , DK) observed 1320 UTC 17 June 2019
Temperature: 21.0°C (70°F)
Dewpoint: 12.0°C (54°F) [RH = 56%]
Pressure (altimeter): 30.12 inches Hg (1020.0 mb)
Winds: from the WSW (240 degrees) at 15 MPH (13 knots; 6.7 m/s)
Visibility: 6 or more miles (10+ km)
Ceiling: 3800 feet AGL
Clouds: broken clouds at 3800 feet AGL
Weather: no significant weather observed at this time

METAR text: EKKA 171250Z AUTO 23013KT 200V260 9999 FEW037/// BKN052/// 22/12 Q1020 NOSIG
Conditions at: EKKA (KARUP (DAN-AFB) , DK) observed 1250 UTC 17 June 2019
Temperature: 22.0°C (72°F)
Dewpoint: 12.0°C (54°F) [RH = 53%]
Pressure (altimeter): 30.12 inches Hg (1020.0 mb)
Winds: from the SW (230 degrees) at 15 MPH (13 knots; 6.7 m/s)
Visibility: 6 or more miles (10+ km)
Ceiling: 5200 feet AGL
Clouds: few clouds at 3700 feet AGL
broken clouds at 5200 feet AGL
Weather: no significant weather observed at this time

METAR text: EKKA 171220Z AUTO 24014KT 9999 SCT034/// BKN051/// 21/12 Q1020 NOSIG
Conditions at: EKKA (KARUP (DAN-AFB) , DK) observed 1220 UTC 17 June 2019
Temperature: 21.0°C (70°F)
Dewpoint: 12.0°C (54°F) [RH = 56%]
Pressure (altimeter): 30.12 inches Hg (1020.0 mb)
Winds: from the WSW (240 degrees) at 16 MPH (14 knots; 7.2 m/s)
Visibility: 6 or more miles (10+ km)
Ceiling: 5100 feet AGL
Clouds: scattered clouds at 3400 feet AGL
broken clouds at 5100 feet AGL
Weather: no significant weather observed at this time

METAR text: EKKA 171150Z AUTO 23015KT 9999 BKN035/// 21/13 Q1020 NOSIG
Conditions at: EKKA (KARUP (DAN-AFB) , DK) observed 1150 UTC 17 June 2019
Temperature: 21.0°C (70°F)
Dewpoint: 13.0°C (55°F) [RH = 60%]
Pressure (altimeter): 30.12 inches Hg (1020.0 mb)
Winds: from the SW (230 degrees) at 17 MPH (15 knots; 7.7 m/s)
Visibility: 6 or more miles (10+ km)
Ceiling: 3500 feet AGL
Clouds: broken clouds at 3500 feet AGL
Weather: no significant weather observed at this time

METAR text: EKKA 171120Z AUTO 24016KT 9999 FEW035/// FEW053/// 22/12 Q1020 NOSIG
Conditions at: EKKA (KARUP (DAN-AFB) , DK) observed 1120 UTC 17 June 2019
Temperature: 22.0°C (72°F)
Dewpoint: 12.0°C (54°F) [RH = 53%]
Pressure (altimeter): 30.12 inches Hg (1020.0 mb)
Winds: from the WSW (240 degrees) at 18 MPH (16 knots; 8.2 m/s)
Visibility: 6 or more miles (10+ km)
Ceiling: at least 12,000 feet AGL
Clouds: few clouds at 3500 feet AGL
few clouds at 5300 feet AGL
Weather: no significant weather observed at this time

METAR text: EKKA 171050Z AUTO 23016KT 9999 FEW032/// 22/13 Q1020 NOSIG
Conditions at: EKKA (KARUP (DAN-AFB) , DK) observed 1050 UTC 17 June 2019
Temperature: 22.0°C (72°F)
Dewpoint: 13.0°C (55°F) [RH = 57%]
Pressure (altimeter): 30.12 inches Hg (1020.0 mb)
Winds: from the SW (230 degrees) at 18 MPH (16 knots; 8.2 m/s)
Visibility: 6 or more miles (10+ km)
Ceiling: at least 12,000 feet AGL
Clouds: few clouds at 3200 feet AGL
Weather: no significant weather observed at this time

METAR text: EKKA 171020Z AUTO 23014KT 9999 SCT030/// SCT049/// 21/13 Q1020 NOSIG
Conditions at: EKKA (KARUP (DAN-AFB) , DK) observed 1020 UTC 17 June 2019
Temperature: 21.0°C (70°F)
Dewpoint: 13.0°C (55°F) [RH = 60%]
Pressure (altimeter): 30.12 inches Hg (1020.0 mb)
Winds: from the SW (230 degrees) at 16 MPH (14 knots; 7.2 m/s)
Visibility: 6 or more miles (10+ km)
Ceiling: at least 12,000 feet AGL
Clouds: scattered clouds at 3000 feet AGL
scattered clouds at 4900 feet AGL
Weather: no significant weather observed at this time

METAR text: EKKA 170950Z AUTO 23010KT 9999 BKN026/// 19/14 Q1020 NOSIG
Conditions at: EKKA (KARUP (DAN-AFB) , DK) observed 0950 UTC 17 June 2019
Temperature: 19.0°C (66°F)
Dewpoint: 14.0°C (57°F) [RH = 73%]
Pressure (altimeter): 30.12 inches Hg (1020.0 mb)
Winds: from the SW (230 degrees) at 12 MPH (10 knots; 5.1 m/s)
Visibility: 6 or more miles (10+ km)
Ceiling: 2600 feet AGL
Clouds: broken clouds at 2600 feet AGL
Weather: no significant weather observed at this time

METAR text: EKKA 170920Z AUTO 21010KT 180V240 9999 SCT027/// 20/14 Q1020 NOSIG
Conditions at: EKKA (KARUP (DAN-AFB) , DK) observed 0920 UTC 17 June 2019
Temperature: 20.0°C (68°F)
Dewpoint: 14.0°C (57°F) [RH = 68%]
Pressure (altimeter): 30.12 inches Hg (1020.0 mb)
Winds: from the SSW (210 degrees) at 12 MPH (10 knots; 5.1 m/s)
Visibility: 6 or more miles (10+ km)
Ceiling: at least 12,000 feet AGL
Clouds: scattered clouds at 2700 feet AGL
Weather: no significant weather observed at this time

METAR text: EKKA 170850Z AUTO 22010KT 9999 FEW024/// FEW040/// 19/13 Q1019 NOSIG
Conditions at: EKKA (KARUP (DAN-AFB) , DK) observed 0850 UTC 17 June 2019
Temperature: 19.0°C (66°F)
Dewpoint: 13.0°C (55°F) [RH = 68%]
Pressure (altimeter): 30.09 inches Hg (1019.0 mb)
Winds: from the SW (220 degrees) at 12 MPH (10 knots; 5.1 m/s)
Visibility: 6 or more miles (10+ km)
Ceiling: at least 12,000 feet AGL
Clouds: few clouds at 2400 feet AGL
few clouds at 4000 feet AGL
Weather: no significant weather observed at this time

METAR text: EKKA 170820Z AUTO 21010KT 9999 SCT020/// 20/13 Q1019 NOSIG
Conditions at: EKKA (KARUP (DAN-AFB) , DK) observed 0820 UTC 17 June 2019
Temperature: 20.0°C (68°F)
Dewpoint: 13.0°C (55°F) [RH = 64%]
Pressure (altimeter): 30.09 inches Hg (1019.0 mb)
Winds: from the SSW (210 degrees) at 12 MPH (10 knots; 5.1 m/s)
Visibility: 6 or more miles (10+ km)
Ceiling: at least 12,000 feet AGL
Clouds: scattered clouds at 2000 feet AGL
Weather: no significant weather observed at this time

METAR text: EKKA 170750Z AUTO 20009KT 170V250 9999 BKN017/// 19/14 Q1019 NOSIG
Conditions at: EKKA (KARUP (DAN-AFB) , DK) observed 0750 UTC 17 June 2019
Temperature: 19.0°C (66°F)
Dewpoint: 14.0°C (57°F) [RH = 73%]
Pressure (altimeter): 30.09 inches Hg (1019.0 mb)
Winds: from the SSW (200 degrees) at 10 MPH (9 knots; 4.6 m/s)
Visibility: 6 or more miles (10+ km)
Ceiling: 1700 feet AGL
Clouds: broken clouds at 1700 feet AGL
Weather: no significant weather observed at this time

METAR text: EKKA 170720Z AUTO 22012KT 9999 BKN016/// 18/14 Q1019 NOSIG
Conditions at: EKKA (KARUP (DAN-AFB) , DK) observed 0720 UTC 17 June 2019
Temperature: 18.0°C (64°F)
Dewpoint: 14.0°C (57°F) [RH = 77%]
Pressure (altimeter): 30.09 inches Hg (1019.0 mb)
Winds: from the SW (220 degrees) at 14 MPH (12 knots; 6.2 m/s)
Visibility: 6 or more miles (10+ km)
Ceiling: 1600 feet AGL
Clouds: broken clouds at 1600 feet AGL
Weather: no significant weather observed at this time

METAR text: EKKA 170650Z AUTO 22012KT 9999 SCT014/// 18/14 Q1019 NOSIG
Conditions at: EKKA (KARUP (DAN-AFB) , DK) observed 0650 UTC 17 June 2019
Temperature: 18.0°C (64°F)
Dewpoint: 14.0°C (57°F) [RH = 77%]
Pressure (altimeter): 30.09 inches Hg (1019.0 mb)
Winds: from the SW (220 degrees) at 14 MPH (12 knots; 6.2 m/s)
Visibility: 6 or more miles (10+ km)
Ceiling: at least 12,000 feet AGL
Clouds: scattered clouds at 1400 feet AGL
Weather: no significant weather observed at this time

METAR text: EKKA 170620Z AUTO 21010KT 9999 FEW013/// 18/13 Q1019 NOSIG
Conditions at: EKKA (KARUP (DAN-AFB) , DK) observed 0620 UTC 17 June 2019
Temperature: 18.0°C (64°F)
Dewpoint: 13.0°C (55°F) [RH = 73%]
Pressure (altimeter): 30.09 inches Hg (1019.0 mb)
Winds: from the SSW (210 degrees) at 12 MPH (10 knots; 5.1 m/s)
Visibility: 6 or more miles (10+ km)
Ceiling: at least 12,000 feet AGL
Clouds: few clouds at 1300 feet AGL
Weather: no significant weather observed at this time

METAR text: EKKA 170550Z AUTO 21009KT 9999 NCD 17/14 Q1019 NOSIG
Conditions at: EKKA (KARUP (DAN-AFB) , DK) observed 0550 UTC 17 June 2019
Temperature: 17.0°C (63°F)
Dewpoint: 14.0°C (57°F) [RH = 82%]
Pressure (altimeter): 30.09 inches Hg (1019.0 mb)
Winds: from the SSW (210 degrees) at 10 MPH (9 knots; 4.6 m/s)
Visibility: 6 or more miles (10+ km)
Ceiling: at least 12,000 feet AGL
Clouds: sky clear below 12,000 feet AGL
Weather: no significant weather observed at this time

METAR text: EKKA 170520Z AUTO 20006KT 170V230 9999 NCD 16/13 Q1019 NOSIG
Conditions at: EKKA (KARUP (DAN-AFB) , DK) observed 0520 UTC 17 June 2019
Temperature: 16.0°C (61°F)
Dewpoint: 13.0°C (55°F) [RH = 82%]
Pressure (altimeter): 30.09 inches Hg (1019.0 mb)
Winds: from the SSW (200 degrees) at 7 MPH (6 knots; 3.1 m/s)
Visibility: 6 or more miles (10+ km)
Ceiling: at least 12,000 feet AGL
Clouds: sky clear below 12,000 feet AGL
Weather: no significant weather observed at this time

METAR text: EKKA 170450Z AUTO 18005KT 9999 BKN026/// 13/12 Q1019 NOSIG
Conditions at: EKKA (KARUP (DAN-AFB) , DK) observed 0450 UTC 17 June 2019
Temperature: 13.0°C (55°F)
Dewpoint: 12.0°C (54°F) [RH = 94%]
Pressure (altimeter): 30.09 inches Hg (1019.0 mb)
Winds: from the S (180 degrees) at 6 MPH (5 knots; 2.6 m/s)
Visibility: 6 or more miles (10+ km)
Ceiling: 2600 feet AGL
Clouds: broken clouds at 2600 feet AGL
Weather: no significant weather observed at this time

METAR text: EKKA 170420Z AUTO 18005KT 9000 SCT025/// 13/12 Q1019
Conditions at: EKKA (KARUP (DAN-AFB) , DK) observed 0420 UTC 17 June 2019
Temperature: 13.0°C (55°F)
Dewpoint: 12.0°C (54°F) [RH = 94%]
Pressure (altimeter): 30.09 inches Hg (1019.0 mb)
Winds: from the S (180 degrees) at 6 MPH (5 knots; 2.6 m/s)
Visibility: 6 miles ( 9 km)
Ceiling: at least 12,000 feet AGL
Clouds: scattered clouds at 2500 feet AGL
Weather: no significant weather observed at this time

METAR text: EKKA 170350Z AUTO 18005KT 7000 FEW023/// SCT032/// BKN040/// 11/11 Q1019
Conditions at: EKKA (KARUP (DAN-AFB) , DK) observed 0350 UTC 17 June 2019
Temperature: 11.0°C (52°F)
Dewpoint: 11.0°C (52°F) [RH = 100%]
Pressure (altimeter): 30.09 inches Hg (1019.0 mb)
Winds: from the S (180 degrees) at 6 MPH (5 knots; 2.6 m/s)
Visibility: 4 miles ( 7 km)
Ceiling: 4000 feet AGL
Clouds: few clouds at 2300 feet AGL
scattered clouds at 3200 feet AGL
broken clouds at 4000 feet AGL
Weather: no significant weather observed at this time

METAR text: EKKA 170320Z AUTO 17004KT 6000 SCT035/// 11/10 Q1019
Conditions at: EKKA (KARUP (DAN-AFB) , DK) observed 0320 UTC 17 June 2019
Temperature: 11.0°C (52°F)
Dewpoint: 10.0°C (50°F) [RH = 94%]
Pressure (altimeter): 30.09 inches Hg (1019.0 mb)
Winds: from the S (170 degrees) at 5 MPH (4 knots; 2.1 m/s)
Visibility: 4 miles ( 6 km)
Ceiling: at least 12,000 feet AGL
Clouds: scattered clouds at 3500 feet AGL
Weather: no significant weather observed at this time

METAR text: EKKA 170250Z 16003KT 3500 MIFG BR NSC 10/10 Q1019 RMK FEW200
Conditions at: EKKA (KARUP (DAN-AFB) , DK) observed 0250 UTC 17 June 2019
Temperature: 10.0°C (50°F)
Dewpoint: 10.0°C (50°F) [RH = 100%]
Pressure (altimeter): 30.09 inches Hg (1019.0 mb)
Winds: from the SSE (160 degrees) at 3 MPH (3 knots; 1.5 m/s)
Visibility: 2.17 miles (3.49 km)
Ceiling: at least 12,000 feet AGL
Clouds: sky clear below 12,000 feet AGL
Weather: MIFG BR  (shallow fog, mist)

METAR text: EKKA 170220Z 16003KT 2000 MIFG BR NSC 10/09 Q1019 RMK FEW200
Conditions at: EKKA (KARUP (DAN-AFB) , DK) observed 0220 UTC 17 June 2019
Temperature: 10.0°C (50°F)
Dewpoint: 9.0°C (48°F) [RH = 93%]
Pressure (altimeter): 30.09 inches Hg (1019.0 mb)
Winds: from the SSE (160 degrees) at 3 MPH (3 knots; 1.5 m/s)
Visibility: 1.24 miles (2.00 km)
Ceiling: at least 12,000 feet AGL
Clouds: sky clear below 12,000 feet AGL
Weather: MIFG BR  (shallow fog, mist)

METAR text: EKKA 170202Z 17003KT 1500 MIFG BR NSC 10/09 Q1019 RMK FEW200
Conditions at: EKKA (KARUP (DAN-AFB) , DK) observed 0202 UTC 17 June 2019
Temperature: 10.0°C (50°F)
Dewpoint: 9.0°C (48°F) [RH = 93%]
Pressure (altimeter): 30.09 inches Hg (1019.0 mb)
Winds: from the S (170 degrees) at 3 MPH (3 knots; 1.5 m/s)
Visibility: 0.93 miles (1.50 km)
Ceiling: at least 12,000 feet AGL
Clouds: sky clear below 12,000 feet AGL
Weather: MIFG BR  (shallow fog, mist)

METAR text: EKKA 170150Z AUTO 15002KT 1200 R09R/P2000N R27L/P2000N BR NCD 10/09 Q1019
Conditions at: EKKA (KARUP (DAN-AFB) , DK) observed 0150 UTC 17 June 2019
Temperature: 10.0°C (50°F)
Dewpoint: 9.0°C (48°F) [RH = 93%]
Pressure (altimeter): 30.09 inches Hg (1019.0 mb)
Winds: from the SSE (150 degrees) at 2 MPH (2 knots; 1.0 m/s)
Visibility: 0.75 miles (1.21 km)
Ceiling: at least 12,000 feet AGL
Clouds: sky clear below 12,000 feet AGL
Weather: BR  (mist)

METAR text: EKKA 170148Z AUTO 15002KT 1300 R09R/P2000N R27L/P2000N BR NCD 10/09 Q1019
Conditions at: EKKA (KARUP (DAN-AFB) , DK) observed 0148 UTC 17 June 2019
Temperature: 10.0°C (50°F)
Dewpoint: 9.0°C (48°F) [RH = 93%]
Pressure (altimeter): 30.09 inches Hg (1019.0 mb)
Winds: from the SSE (150 degrees) at 2 MPH (2 knots; 1.0 m/s)
Visibility: 0.81 miles (1.30 km)
Ceiling: at least 12,000 feet AGL
Clouds: sky clear below 12,000 feet AGL
Weather: BR  (mist)

METAR text: EKKA 170147Z AUTO 15002KT 1300 R09R/P2000N R27L/P2000N BR NCD 10/09 Q1019
Conditions at: EKKA (KARUP (DAN-AFB) , DK) observed 0147 UTC 17 June 2019
Temperature: 10.0°C (50°F)
Dewpoint: 9.0°C (48°F) [RH = 93%]
Pressure (altimeter): 30.09 inches Hg (1019.0 mb)
Winds: from the SSE (150 degrees) at 2 MPH (2 knots; 1.0 m/s)
Visibility: 0.81 miles (1.30 km)
Ceiling: at least 12,000 feet AGL
Clouds: sky clear below 12,000 feet AGL
Weather: BR  (mist)

METAR text: EKKA 170146Z AUTO 15002KT 1700 BR NCD 10/10 Q1019
Conditions at: EKKA (KARUP (DAN-AFB) , DK) observed 0146 UTC 17 June 2019
Temperature: 10.0°C (50°F)
Dewpoint: 10.0°C (50°F) [RH = 100%]
Pressure (altimeter): 30.09 inches Hg (1019.0 mb)
Winds: from the SSE (150 degrees) at 2 MPH (2 knots; 1.0 m/s)
Visibility: 1.06 miles (1.71 km)
Ceiling: at least 12,000 feet AGL
Clouds: sky clear below 12,000 feet AGL
Weather: BR  (mist)

METAR text: EKKA 170145Z AUTO 15002KT 1800 BR NCD 10/10 Q1019
Conditions at: EKKA (KARUP (DAN-AFB) , DK) observed 0145 UTC 17 June 2019
Temperature: 10.0°C (50°F)
Dewpoint: 10.0°C (50°F) [RH = 100%]
Pressure (altimeter): 30.09 inches Hg (1019.0 mb)
Winds: from the SSE (150 degrees) at 2 MPH (2 knots; 1.0 m/s)
Visibility: 1.12 miles (1.80 km)
Ceiling: at least 12,000 feet AGL
Clouds: sky clear below 12,000 feet AGL
Weather: BR  (mist)

METAR text: EKKA 170143Z AUTO 15002KT 2700 BR NCD 10/10 Q1019
Conditions at: EKKA (KARUP (DAN-AFB) , DK) observed 0143 UTC 17 June 2019
Temperature: 10.0°C (50°F)
Dewpoint: 10.0°C (50°F) [RH = 100%]
Pressure (altimeter): 30.09 inches Hg (1019.0 mb)
Winds: from the SSE (150 degrees) at 2 MPH (2 knots; 1.0 m/s)
Visibility: 1.68 miles (2.70 km)
Ceiling: at least 12,000 feet AGL
Clouds: sky clear below 12,000 feet AGL
Weather: BR  (mist)

METAR text: EKKA 170142Z AUTO 15002KT 2800 BR NCD 10/10 Q1019
Conditions at: EKKA (KARUP (DAN-AFB) , DK) observed 0142 UTC 17 June 2019
Temperature: 10.0°C (50°F)
Dewpoint: 10.0°C (50°F) [RH = 100%]
Pressure (altimeter): 30.09 inches Hg (1019.0 mb)
Winds: from the SSE (150 degrees) at 2 MPH (2 knots; 1.0 m/s)
Visibility: 1.74 miles (2.80 km)
Ceiling: at least 12,000 feet AGL
Clouds: sky clear below 12,000 feet AGL
Weather: BR  (mist)

METAR text: EKKA 170131Z AUTO 16003KT 4900 NCD 10/10 Q1019
Conditions at: EKKA (KARUP (DAN-AFB) , DK) observed 0131 UTC 17 June 2019
Temperature: 10.0°C (50°F)
Dewpoint: 10.0°C (50°F) [RH = 100%]
Pressure (altimeter): 30.09 inches Hg (1019.0 mb)
Winds: from the SSE (160 degrees) at 3 MPH (3 knots; 1.5 m/s)
Visibility: 3 miles ( 5 km)
Ceiling: at least 12,000 feet AGL
Clouds: sky clear below 12,000 feet AGL
Weather: no significant weather observed at this time

METAR text: EKKA 170120Z AUTO 18004KT 4500 BR NCD 11/10 Q1019
Conditions at: EKKA (KARUP (DAN-AFB) , DK) observed 0120 UTC 17 June 2019
Temperature: 11.0°C (52°F)
Dewpoint: 10.0°C (50°F) [RH = 94%]
Pressure (altimeter): 30.09 inches Hg (1019.0 mb)
Winds: from the S (180 degrees) at 5 MPH (4 knots; 2.1 m/s)
Visibility: 2.80 miles (4.51 km)
Ceiling: at least 12,000 feet AGL
Clouds: sky clear below 12,000 feet AGL
Weather: BR  (mist)

METAR text: EKKA 170116Z AUTO 18004KT 4900 NCD 11/10 Q1019
Conditions at: EKKA (KARUP (DAN-AFB) , DK) observed 0116 UTC 17 June 2019
Temperature: 11.0°C (52°F)
Dewpoint: 10.0°C (50°F) [RH = 94%]
Pressure (altimeter): 30.09 inches Hg (1019.0 mb)
Winds: from the S (180 degrees) at 5 MPH (4 knots; 2.1 m/s)
Visibility: 3 miles ( 5 km)
Ceiling: at least 12,000 feet AGL
Clouds: sky clear below 12,000 feet AGL
Weather: no significant weather observed at this time

METAR text: EKKA 170115Z AUTO 18004KT 4900 NCD 11/10 Q1019
Conditions at: EKKA (KARUP (DAN-AFB) , DK) observed 0115 UTC 17 June 2019
Temperature: 11.0°C (52°F)
Dewpoint: 10.0°C (50°F) [RH = 94%]
Pressure (altimeter): 30.09 inches Hg (1019.0 mb)
Winds: from the S (180 degrees) at 5 MPH (4 knots; 2.1 m/s)
Visibility: 3 miles ( 5 km)
Ceiling: at least 12,000 feet AGL
Clouds: sky clear below 12,000 feet AGL
Weather: no significant weather observed at this time

METAR text: EKKA 170055Z AUTO 18004KT 4900 BR NCD 11/10 Q1019
Conditions at: EKKA (KARUP (DAN-AFB) , DK) observed 0055 UTC 17 June 2019
Temperature: 11.0°C (52°F)
Dewpoint: 10.0°C (50°F) [RH = 94%]
Pressure (altimeter): 30.09 inches Hg (1019.0 mb)
Winds: from the S (180 degrees) at 5 MPH (4 knots; 2.1 m/s)
Visibility: 3 miles ( 5 km)
Ceiling: at least 12,000 feet AGL
Clouds: sky clear below 12,000 feet AGL
Weather: BR  (mist)

METAR text: EKKA 170054Z AUTO 18004KT 4900 NCD 10/10 Q1019
Conditions at: EKKA (KARUP (DAN-AFB) , DK) observed 0054 UTC 17 June 2019
Temperature: 10.0°C (50°F)
Dewpoint: 10.0°C (50°F) [RH = 100%]
Pressure (altimeter): 30.09 inches Hg (1019.0 mb)
Winds: from the S (180 degrees) at 5 MPH (4 knots; 2.1 m/s)
Visibility: 3 miles ( 5 km)
Ceiling: at least 12,000 feet AGL
Clouds: sky clear below 12,000 feet AGL
Weather: no significant weather observed at this time

METAR text: EKKA 170050Z AUTO 17004KT 6000 NCD 10/10 Q1019
Conditions at: EKKA (KARUP (DAN-AFB) , DK) observed 0050 UTC 17 June 2019
Temperature: 10.0°C (50°F)
Dewpoint: 10.0°C (50°F) [RH = 100%]
Pressure (altimeter): 30.09 inches Hg (1019.0 mb)
Winds: from the S (170 degrees) at 5 MPH (4 knots; 2.1 m/s)
Visibility: 4 miles ( 6 km)
Ceiling: at least 12,000 feet AGL
Clouds: sky clear below 12,000 feet AGL
Weather: no significant weather observed at this time

METAR text: EKKA 170020Z AUTO 15002KT 4500 BR NCD 10/09 Q1019
Conditions at: EKKA (KARUP (DAN-AFB) , DK) observed 0020 UTC 17 June 2019
Temperature: 10.0°C (50°F)
Dewpoint: 9.0°C (48°F) [RH = 93%]
Pressure (altimeter): 30.09 inches Hg (1019.0 mb)
Winds: from the SSE (150 degrees) at 2 MPH (2 knots; 1.0 m/s)
Visibility: 2.80 miles (4.51 km)
Ceiling: at least 12,000 feet AGL
Clouds: sky clear below 12,000 feet AGL
Weather: BR  (mist)

METAR text: EKKA 170017Z AUTO 15002KT 4900 BR NCD 10/10 Q1019
Conditions at: EKKA (KARUP (DAN-AFB) , DK) observed 0017 UTC 17 June 2019
Temperature: 10.0°C (50°F)
Dewpoint: 10.0°C (50°F) [RH = 100%]
Pressure (altimeter): 30.09 inches Hg (1019.0 mb)
Winds: from the SSE (150 degrees) at 2 MPH (2 knots; 1.0 m/s)
Visibility: 3 miles ( 5 km)
Ceiling: at least 12,000 feet AGL
Clouds: sky clear below 12,000 feet AGL
Weather: BR  (mist)

METAR text: EKKA 162350Z AUTO 15002KT 7000 NCD 11/10 Q1019
Conditions at: EKKA (KARUP (DAN-AFB) , DK) observed 2350 UTC 16 June 2019
Temperature: 11.0°C (52°F)
Dewpoint: 10.0°C (50°F) [RH = 94%]
Pressure (altimeter): 30.09 inches Hg (1019.0 mb)
Winds: from the SSE (150 degrees) at 2 MPH (2 knots; 1.0 m/s)
Visibility: 4 miles ( 7 km)
Ceiling: at least 12,000 feet AGL
Clouds: sky clear below 12,000 feet AGL
Weather: no significant weather observed at this time

METAR text: EKKA 162347Z AUTO 15003KT 7000 NCD 11/10 Q1019
Conditions at: EKKA (KARUP (DAN-AFB) , DK) observed 2347 UTC 16 June 2019
Temperature: 11.0°C (52°F)
Dewpoint: 10.0°C (50°F) [RH = 94%]
Pressure (altimeter): 30.09 inches Hg (1019.0 mb)
Winds: from the SSE (150 degrees) at 3 MPH (3 knots; 1.5 m/s)
Visibility: 4 miles ( 7 km)
Ceiling: at least 12,000 feet AGL
Clouds: sky clear below 12,000 feet AGL
Weather: no significant weather observed at this time

METAR text: EKKA 162346Z AUTO 15003KT 7000 NCD 11/10 Q1019
Conditions at: EKKA (KARUP (DAN-AFB) , DK) observed 2346 UTC 16 June 2019
Temperature: 11.0°C (52°F)
Dewpoint: 10.0°C (50°F) [RH = 94%]
Pressure (altimeter): 30.09 inches Hg (1019.0 mb)
Winds: from the SSE (150 degrees) at 3 MPH (3 knots; 1.5 m/s)
Visibility: 4 miles ( 7 km)
Ceiling: at least 12,000 feet AGL
Clouds: sky clear below 12,000 feet AGL
Weather: no significant weather observed at this time

METAR text: EKKA 162320Z AUTO 17004KT 9999 NCD 11/10 Q1019
Conditions at: EKKA (KARUP (DAN-AFB) , DK) observed 2320 UTC 16 June 2019
Temperature: 11.0°C (52°F)
Dewpoint: 10.0°C (50°F) [RH = 94%]
Pressure (altimeter): 30.09 inches Hg (1019.0 mb)
Winds: from the S (170 degrees) at 5 MPH (4 knots; 2.1 m/s)
Visibility: 6 or more miles (10+ km)
Ceiling: at least 12,000 feet AGL
Clouds: sky clear below 12,000 feet AGL
Weather: no significant weather observed at this time

METAR text: EKKA 162250Z AUTO 18002KT 9999 NCD 12/11 Q1019
Conditions at: EKKA (KARUP (DAN-AFB) , DK) observed 2250 UTC 16 June 2019
Temperature: 12.0°C (54°F)
Dewpoint: 11.0°C (52°F) [RH = 94%]
Pressure (altimeter): 30.09 inches Hg (1019.0 mb)
Winds: from the S (180 degrees) at 2 MPH (2 knots; 1.0 m/s)
Visibility: 6 or more miles (10+ km)
Ceiling: at least 12,000 feet AGL
Clouds: sky clear below 12,000 feet AGL
Weather: no significant weather observed at this time

Forecast for: EKKA (KARUP (DAN-AFB) , DK)
Text: TAF EKKA 180808Z 1809/1909 19008KT 9999 SCT050 SCT200
Forecast period: 0900 to 1600 UTC 18 June 2019
Forecast type: FROM: standard forecast or significant change
Winds: from the S (190 degrees) at 9 MPH (8 knots; 4.1 m/s)
Visibility: 6 or more miles 10+ km)
Ceiling: at least 12,000 feet AGL
Clouds: scattered clouds at 5000 feet AGL
scattered clouds at 20000 feet AGL
Weather: no significant weather forecast for this period
Text: TEMPO 1811/1816 22012G25KT 6000 SHRA SCT040CB
Forecast period: 1100 to 1600 UTC 18 June 2019
Forecast type: TEMPORARY: The following changes expected for less than half the time period
Winds: from the SW (220 degrees) at 14 MPH (12 knots; 6.2 m/s)
gusting to 29 MPH (25 knots; 12.9 m/s)
Visibility: 4 miles (6 km)
Ceiling: at least 12,000 feet AGL
Clouds: scattered clouds at 4000 feet AGL
Weather: SHRA  (rain showers)
Text: BECMG 1816/1819 VRB05KT
Forecast period: 1600 UTC 18 June 2019 to 0700 UTC 19 June 2019
Forecast type: BECOMING: Conditions expected to become as follows by 1900 UTC 18 June 2019
Winds: variable direction winds at 6 MPH (5 knots; 2.6 m/s)
Visibility: 6 or more miles 10+ km)
Ceiling: at least 12,000 feet AGL
Clouds: scattered clouds at 5000 feet AGL
scattered clouds at 20000 feet AGL
Weather: no significant weather forecast for this period
Text: PROB40 1902/1904 1200 MIFG
Forecast period: 0200 to 0400 UTC 19 June 2019
Forecast type: PROBABLE: 40 percent likelihood of the following during this time
Visibility: 0.75 miles (1.21 km)
Ceiling: unknown
Clouds: missing
Weather: MIFG  (shallow fog)
Text: BECMG 1907/1909 09008KT
Forecast period: 0700 to 0900 UTC 19 June 2019
Forecast type: BECOMING: Conditions expected to become as follows by 0900 UTC 19 June 2019
Winds: from the E (90 degrees) at 9 MPH (8 knots; 4.1 m/s)
Visibility: 6 or more miles 10+ km)
Ceiling: at least 12,000 feet AGL
Clouds: scattered clouds at 5000 feet AGL
scattered clouds at 20000 feet AGL
Weather: no significant weather forecast for this period